Amlin, Ohio
Current Conditions -  °F | °C
As of 7:53 PM on Wednesday 22 Oct 2014 (Local Time) from KOSU Reporting Station
Overcast Overcast  
Wind Chill: 47°   Ceiling: 3000
Heat Index: 49°   Visibility: 10mi
Dew Point: 41°   Wind: 6mph
Humidity: 74%   Direction: 340°NNW
Pressure: 30.26"   Gusts: NA
Location:  40.08°N, 83.18°W
Report Text: KOSU 222353Z 34005KT 10SM OVC030 09/05 A3026 RMK AO2 SLP250 T00940050 10100 20094 53001
Loading
Personal Weather Stations






























Interactive Weather Map
Tropical Storm Tracking
New forecast layout! Learn more

10-Day Weather Forecast

Advertisements
Track Severe Weather on mobile